Latest Coastal Weather Observations for Cape Grim

IDT60701

Issued at 2:32 am EST Monday 20 May 2019 (issued every 10 minutes, with the page automatically refreshed every 10 minutes)

About coastal observations | Map of coastal stations | Coastal observations for TAS | Marine services | Other Formats
Station Details ID: 091331 Name: CAPE GRIM Lat: -40.68 Lon: 144.69 Height: 86.0 m
Data from the previous 72 hours. | See also: Recent months at Cape Grim
Date/Time
EST
Wind Sea
Height
m
Swell Vis
km
Cloud Weather Temp
°C
Press
hPa
Rain since
9am
mm
Dir  Spd
kts
Gust
kts
Height
m
Period
s
Dir
20/02:30am ENE 15 19 - - - - - - - 13.4 1022.2 0.4
20/02:00am ENE 16 19 - - - - - - - 13.5 1022.2 0.4
20/01:30am ENE 17 20 - - - - - - - 13.5 1022.4 0.4
20/01:00am ENE 17 21 - - - - - - - 13.5 1022.5 0.2
20/12:30am ENE 17 21 - - - - - - - 13.5 1022.7 0.2
20/12:00am ENE 18 23 - - - - - - - 13.5 1022.6 0.2
 
Date/Time
EST
Wind Sea
Height
m
Swell Vis
km
Cloud Weather Temp
°C
Press
hPa
Rain since
9am
mm
Dir  Spd
kts
Gust
kts
Height
m
Period
s
Dir
19/11:30pm ENE 18 23 - - - - - - - 13.4 1022.7 0.2
19/11:00pm E 16 21 - - - - - - - 13.1 1023.2 0.2
19/10:30pm E 15 18 - - - - - - - 12.8 1023.7 0.2
19/10:00pm E 16 19 - - - - - - - 13.0 1023.9 0.2
19/09:30pm E 16 19 - - - - - - - 12.5 1023.8 0.2
19/09:00pm ENE 17 21 - - - - - - - 12.8 1023.9 0.0
19/08:30pm ENE 19 22 - - - - - - - 13.1 1024.1 0.0
19/08:00pm E 15 19 - - - - - - - 12.8 1024.3 0.0
19/07:30pm ENE 17 20 - - - - - - - 12.9 1024.4 0.0
19/07:00pm ENE 17 21 - - - - - - - 13.2 1024.6 0.0
19/06:30pm ENE 16 19 - - - - - - - 12.8 1024.5 0.0
19/06:00pm E 16 18 - - - - - - - 12.9 1024.4 0.0
19/05:30pm ENE 17 21 - - - - - - - 13.2 1024.5 0.0
19/05:00pm E 18 22 - - - - - - - 13.5 1024.5 0.0
19/04:30pm E 19 23 - - - - - - - 13.7 1024.7 0.0
19/04:00pm E 18 22 - - - - - - - 14.0 1024.7 0.0
19/03:30pm E 19 24 - - - - - - - 14.7 1024.8 0.0
19/03:00pm ENE 18 22 - - - - - - - 14.9 1025.1 0.0
19/02:30pm ENE 18 22 - - - - - - - 15.2 1025.2 0.0
19/02:00pm ENE 18 23 - - - - - - - 15.1 1025.5 0.0
19/01:30pm ENE 19 23 - - - - - - - 15.2 1025.9 0.0
19/01:00pm ENE 20 23 - - - - - - - 15.2 1026.2 0.0
19/12:30pm ENE 19 23 - - - - - - - 15.0 1026.8 0.0
19/12:00pm ENE 18 22 - - - - - - - 14.0 1027.4 0.0
19/11:30am ENE 17 22 - - - - - - - 13.8 1027.6 0.0
19/11:00am E 17 19 - - - - - - - 13.3 1028.1 0.0
19/10:30am E 14 16 - - - - - - - 12.4 1028.3 0.0
19/10:00am E 13 15 - - - - - - - 10.6 1028.4 0.0
19/09:30am E 14 16 - - - - - - - 9.5 1028.5 0.0
19/09:00am E 14 15 - - - - - - - 8.7 1028.7 0.4
19/08:30am E 14 16 - - - - - - - 8.2 1028.7 0.4
19/08:00am E 14 16 - - - - - - - 8.2 1028.7 0.4
19/07:30am E 14 15 - - - - - - - 8.0 1028.6 0.4
19/07:00am E 12 14 - - - - - - - 8.1 1028.7 0.4
19/06:30am E 12 15 - - - - - - - 7.8 1028.6 0.4
19/06:00am ENE 11 13 - - - - - - - 8.1 1028.6 0.4
19/05:30am ENE 11 11 - - - - - - - 7.9 1028.5 0.4
19/05:00am E 10 11 - - - - - - - 7.3 1028.4 0.4
19/04:30am E 10 10 - - - - - - - 8.3 1028.4 0.4
19/04:00am E 9 10 - - - - - - - 8.6 1028.3 0.2
19/03:30am E 8 9 - - - - - - - 8.8 1028.3 0.2
19/03:00am SE 5 6 - - - - - - - 10.1 1028.6 0.2
19/02:30am SE 5 6 - - - - - - - 10.4 1028.8 0.2
19/02:00am SE 3 5 - - - - - - - 10.3 1028.9 0.2
19/01:30am CALM 0 0 - - - - - - - 10.9 1029.3 0.2
19/01:00am SE 4 5 - - - - - - - 10.9 1029.5 0.2
19/12:30am SE 8 8 - - - - - - - 10.1 1029.4 0.2
19/12:00am SSE 1 3 - - - - - - Recent precip. 11.9 1029.5 0.2
 
Date/Time
EST
Wind Sea
Height
m
Swell Vis
km
Cloud Weather Temp
°C
Press
hPa
Rain since
9am
mm
Dir  Spd
kts
Gust
kts
Height
m
Period
s
Dir
18/11:30pm SSE 5 5 - - - - - - - 11.5 1029.9 0.2
18/11:00pm SSE 5 5 - - - - - - - 11.3 1030.0 0.0
18/10:30pm SSE 6 6 - - - - - - - 11.2 1030.1 0.0
18/10:00pm SSE 5 6 - - - - - - - 11.5 1030.3 0.0
18/09:30pm S 5 5 - - - - - - - 11.7 1030.3 0.0
18/09:00pm S 6 7 - - - - - - - 11.7 1030.3 0.0
18/08:30pm S 7 8 - - - - - - - 11.5 1030.2 0.0
18/08:00pm S 6 8 - - - - - - - 12.1 1030.0 0.0
18/07:30pm S 5 6 - - - - - - - 12.4 1029.9 0.0
18/07:00pm SSW 6 7 - - - - - - - 12.7 1029.8 0.0
18/06:30pm SSW 7 9 - - - - - - - 13.0 1029.5 0.0
18/06:00pm SSW 7 9 - - - - - - - 13.1 1029.3 0.0
18/05:30pm SW 4 6 - - - - - - - 12.9 1028.9 0.0
18/05:00pm SW 5 7 - - - - - - - 13.5 1028.8 0.0
18/04:30pm SW 6 8 - - - - - - - 14.1 1028.8 0.0
18/04:00pm SW 7 8 - - - - - - - 14.0 1028.8 0.0
18/03:30pm SW 7 9 - - - - - - - 14.9 1028.9 0.0
18/03:00pm W 5 8 - - - - - - - 14.7 1028.9 0.0
18/02:30pm W 5 7 - - - - - - - 14.8 1029.2 0.0
18/02:00pm W 6 8 - - - - - - - 15.4 1029.3 0.0
18/01:30pm W 6 8 - - - - - - - 15.5 1029.6 0.0
18/01:00pm W 6 7 - - - - - - - 15.4 1029.9 0.0
18/12:30pm W 6 7 - - - - - - - 15.7 1030.0 0.0
18/12:00pm WNW 6 7 - - - - - - - 15.7 1030.3 0.0
18/11:30am NW 5 7 - - - - - - - 15.4 1030.6 0.0
18/11:00am WNW 5 6 - - - - - - - 15.9 1030.6 0.0
18/10:30am WSW 4 5 - - - - - - - 15.1 1030.4 0.0
18/10:00am WSW 4 5 - - - - - - - 14.9 1030.6 0.0
18/09:30am WSW 2 5 - - - - - - - 14.7 1030.5 0.0
18/09:00am WSW 5 6 - - - - - - - 14.2 1030.3 0.2
18/08:30am W 5 7 - - - - - - - 13.8 1030.2 0.2
18/08:00am W 5 7 - - - - - - - 13.4 1030.0 0.2
18/07:30am W 6 7 - - - - - - - 12.3 1029.5 0.2
18/07:00am NW 6 8 - - - - - - - 12.4 1029.0 0.2
18/06:30am NW 9 10 - - - - - - - 12.7 1028.7 0.2
18/06:00am NW 8 11 - - - - - - - 12.7 1028.7 0.2
18/05:30am NW 7 8 - - - - - - - 12.8 1028.6 0.2
18/05:00am NW 8 9 - - - - - - - 12.8 1028.3 0.2
18/04:30am NW 7 8 - - - - - - - 12.4 1028.4 0.0
18/04:00am NNW 6 8 - - - - - - - 12.1 1028.3 0.0
18/03:30am NNW 5 7 - - - - - - - 12.1 1028.4 0.0
18/03:00am NNW 5 5 - - - - - - - 12.3 1028.7 0.0
18/02:30am NNW 4 5 - - - - - - - 12.3 1028.7 0.0
18/02:00am NW 5 5 - - - - - - - 12.8 1028.7 0.0
18/01:30am NW 4 4 - - - - - - - 13.2 1028.7 0.0
18/01:00am WNW 4 5 - - - - - - - 13.0 1028.6 0.0
18/12:30am WNW 4 5 - - - - - - - 12.9 1028.7 0.0
18/12:00am WNW 5 7 - - - - - - - 12.7 1028.8 0.0
 
Date/Time
EST
Wind Sea
Height
m
Swell Vis
km
Cloud Weather Temp
°C
Press
hPa
Rain since
9am
mm
Dir  Spd
kts
Gust
kts
Height
m
Period
s
Dir
17/11:30pm NW 5 8 - - - - - - - 12.7 1028.7 0.0
17/11:00pm NW 7 9 - - - - - - - 13.0 1028.7 0.0
17/10:30pm NW 7 8 - - - - - - - 13.4 1028.7 0.0
17/10:00pm NW 7 8 - - - - - - - 13.5 1028.6 0.0
17/09:30pm NW 6 8 - - - - - - - 13.5 1028.3 0.0
17/09:00pm NW 6 7 - - - - - - - 13.3 1028.1 0.0
17/08:30pm WNW 5 7 - - - - - - - 13.6 1027.9 0.0
17/08:00pm WNW 7 8 - - - - - - - 13.9 1027.6 0.0
17/07:30pm WNW 7 9 - - - - - - - 13.5 1027.3 0.0
17/07:00pm WNW 6 7 - - - - - - - 13.4 1027.1 0.0
17/06:30pm WNW 7 9 - - - - - - - 13.2 1026.9 0.0
17/06:00pm NW 7 8 - - - - - - - 12.8 1026.7 0.0
17/05:30pm NW 7 8 - - - - - - - 13.1 1026.4 0.0
17/05:00pm NW 7 9 - - - - - - - 13.3 1026.1 0.0
17/04:30pm NNW 8 9 - - - - - - - 13.7 1026.0 0.0
17/04:00pm NNW 9 10 - - - - - - - 14.3 1025.9 0.0
17/03:30pm NNW 8 11 - - - - - - - 14.6 1025.9 0.0
17/03:00pm NW 8 10 - - - - - - - 14.9 1025.8 0.0
17/02:30pm WNW 9 10 - - - - - - - 15.1 1025.8 0.0
17/02:00pm WNW 9 11 - - - - - - - 14.9 1025.9 0.0
17/01:30pm WNW 9 11 - - - - - - - 15.6 1025.9 0.0
17/01:00pm NW 10 12 - - - - - - - 15.6 1026.1 0.0
17/12:30pm NW 9 11 - - - - - - - 15.4 1026.2 0.0
17/12:00pm NW 10 13 - - - - - - - 15.1 1026.5 0.0
17/11:30am NW 10 13 - - - - - - - 15.0 1026.8 0.0
17/11:00am NW 9 11 - - - - - - - 15.7 1026.8 0.0
17/10:30am NW 10 13 - - - - - - - 15.0 1026.8 0.0
17/10:00am NW 12 16 - - - - - - - 14.7 1026.6 0.0
17/09:30am NW 12 16 - - - - - - - 14.6 1026.7 0.0
17/09:00am WNW 11 15 - - - - - - - 14.0 1026.5 0.4
17/08:30am WNW 13 16 - - - - - - - 13.5 1026.3 0.4
17/08:00am WNW 14 17 - - - - - - - 13.4 1026.1 0.4
17/07:30am WNW 14 17 - - - - - - - 13.1 1025.8 0.4
17/07:00am WNW 14 18 - - - - - - - 12.9 1025.5 0.4
17/06:30am WNW 14 17 - - - - - - - 13.0 1025.2 0.4
17/06:00am WNW 15 19 - - - - - - - 13.1 1025.0 0.4
17/05:30am WNW 16 20 - - - - - - - 13.4 1024.8 0.4
17/05:00am WNW 14 20 - - - - - - - 13.4 1024.5 0.4
17/04:30am W 13 16 - - - - - - - 13.4 1024.4 0.4
17/04:00am W 13 16 - - - - - - - 13.3 1024.3 0.4
17/03:30am W 12 16 - - - - - - - 13.2 1024.3 0.4
17/03:00am NW 15 21 - - - - - - - 13.6 1024.5 0.4

Other formats

Comma delimited format used in spreadsheet applications
http://www.bom.gov.au/fwo/IDT60701/IDT60701.95954.axf

JavaScript Object Notation format (JSON) in row-major order
http://www.bom.gov.au/fwo/IDT60701/IDT60701.95954.json

Data quality

Most of these data are generated automatically and are frequently updated. Quality checks on data are not normally performed. It is possible for incorrect values to appear. Refer to information at About Latest Weather Observations and please check the disclaimer before using these data.